createdAt,value
2023-04-26T00:01:05.516Z,99779.86
2023-04-26T00:03:34.488Z,99781.80
2023-04-26T00:06:06.317Z,99781.91
2023-04-26T00:08:35.301Z,99785.98
2023-04-26T00:11:04.973Z,99783.05
2023-04-26T00:13:33.485Z,99783.59
2023-04-26T00:16:02.025Z,99781.65
2023-04-26T00:18:32.009Z,99784.80
2023-04-26T00:21:00.568Z,99783.56
2023-04-26T00:23:29.246Z,99785.28
2023-04-26T00:25:58.058Z,99785.55
2023-04-26T00:28:26.840Z,99785.71
2023-04-26T00:30:58.334Z,99785.25
2023-04-26T00:33:42.964Z,99785.78
2023-04-26T00:36:11.859Z,99787.14
2023-04-26T00:38:40.519Z,99788.65
2023-04-26T00:41:10.040Z,99791.36
2023-04-26T00:44:48.547Z,99797.53
2023-04-26T00:47:54.056Z,99799.58
2023-04-26T00:51:19.821Z,99801.42
2023-04-26T00:54:26.300Z,99805.13
2023-04-26T00:56:55.422Z,99808.60
2023-04-26T00:59:24.889Z,99812.83
2023-04-26T01:01:53.894Z,99811.45
2023-04-26T01:04:26.700Z,99812.82
2023-04-26T01:06:56.076Z,99812.88
2023-04-26T01:09:24.867Z,99813.59
2023-04-26T01:11:54.182Z,99814.20
2023-04-26T01:14:23.345Z,99816.55
2023-04-26T01:16:52.761Z,99815.55
2023-04-26T01:19:21.844Z,99817.64
2023-04-26T01:21:50.322Z,99816.55
2023-04-26T01:24:19.011Z,99819.28
2023-04-26T01:26:48.216Z,99822.98
2023-04-26T01:29:18.466Z,99823.67
2023-04-26T01:31:48.142Z,99820.20
2023-04-26T01:34:16.929Z,99824.65
2023-04-26T01:36:47.999Z,99824.29
2023-04-26T01:39:16.875Z,99825.05
2023-04-26T01:41:45.654Z,99830.31
2023-04-26T01:44:14.551Z,99830.26
2023-04-26T01:46:43.388Z,99829.61
2023-04-26T01:49:14.482Z,99825.70
2023-04-26T01:51:43.253Z,99828.83
2023-04-26T01:54:12.051Z,99832.69
2023-04-26T01:56:40.853Z,99833.48
2023-04-26T01:59:09.514Z,99833.77
2023-04-26T02:01:38.453Z,99832.30
2023-04-26T02:04:07.613Z,99838.79
2023-04-26T02:06:37.018Z,99836.38
2023-04-26T02:09:06.412Z,99838.60
2023-04-26T02:11:35.012Z,99838.27
2023-04-26T02:14:03.675Z,99837.27
2023-04-26T02:16:33.152Z,99837.85
2023-04-26T02:19:01.620Z,99839.30
2023-04-26T02:21:31.134Z,99836.17
2023-04-26T02:23:59.876Z,99838.98
2023-04-26T02:26:28.690Z,99839.04
2023-04-26T02:28:57.235Z,99839.94
2023-04-26T02:31:25.844Z,99836.02
2023-04-26T02:33:54.605Z,99839.80
2023-04-26T02:36:23.496Z,99839.08
2023-04-26T02:38:53.800Z,99841.62
2023-04-26T02:41:24.056Z,99847.55
2023-04-26T02:43:53.128Z,99850.30
2023-04-26T02:46:21.848Z,99844.34
2023-04-26T02:48:51.465Z,99845.44
2023-04-26T02:51:21.454Z,99845.02
2023-04-26T02:53:50.235Z,99839.52
2023-04-26T02:56:19.961Z,99846.55
2023-04-26T02:58:48.836Z,99846.54
2023-04-26T03:01:19.092Z,99845.02
2023-04-26T03:03:48.609Z,99851.09
2023-04-26T03:06:17.227Z,99849.35
2023-04-26T03:08:46.138Z,99852.00
2023-04-26T03:11:15.030Z,99853.83
2023-04-26T03:13:44.035Z,99858.27
2023-04-26T03:16:13.053Z,99858.48
2023-04-26T03:18:41.916Z,99859.63
2023-04-26T03:21:11.513Z,99865.23
2023-04-26T03:23:40.191Z,99864.68
2023-04-26T03:26:09.091Z,99867.47
2023-04-26T03:28:38.202Z,99869.45
2023-04-26T03:31:07.178Z,99873.41
2023-04-26T03:33:36.690Z,99876.80
2023-04-26T03:36:07.519Z,99877.73
2023-04-26T03:38:36.721Z,99880.70
2023-04-26T03:41:05.669Z,99884.16
2023-04-26T03:43:34.299Z,99880.27
2023-04-26T03:46:06.436Z,99884.44
2023-04-26T03:48:35.157Z,99888.39
2023-04-26T03:51:04.468Z,99887.77
2023-04-26T03:53:34.061Z,99893.65
2023-04-26T03:56:03.075Z,99895.59
2023-04-26T03:58:32.545Z,99902.20
2023-04-26T04:01:01.535Z,99903.70
2023-04-26T04:03:31.062Z,99901.13
2023-04-26T04:05:59.835Z,99903.23
2023-04-26T04:08:28.833Z,99903.66
2023-04-26T04:10:57.390Z,99909.65
2023-04-26T04:13:27.330Z,99912.01
2023-04-26T04:15:56.119Z,99920.49
2023-04-26T04:18:27.048Z,99917.38
2023-04-26T04:20:56.453Z,99916.02
2023-04-26T04:23:25.446Z,99918.73
2023-04-26T04:25:54.655Z,99919.81
2023-04-26T04:28:24.478Z,99922.23
2023-04-26T04:30:53.255Z,99927.84
2023-04-26T04:33:22.554Z,99927.01
2023-04-26T04:35:52.975Z,99930.88
2023-04-26T04:38:21.949Z,99932.70
2023-04-26T04:40:50.751Z,99934.82
2023-04-26T04:43:20.853Z,99933.66
2023-04-26T04:45:50.347Z,99934.91
2023-04-26T04:48:21.904Z,99935.52
2023-04-26T04:50:51.293Z,99939.90
2023-04-26T04:53:20.202Z,99942.59
2023-04-26T04:55:49.937Z,99937.64
2023-04-26T04:58:19.317Z,99944.42
2023-04-26T05:00:47.997Z,99942.98
2023-04-26T05:03:29.818Z,99950.48
2023-04-26T05:05:59.519Z,99953.01
2023-04-26T05:08:29.011Z,99952.55
2023-04-26T05:11:01.188Z,99952.20
2023-04-26T05:13:30.288Z,99954.64
2023-04-26T05:15:59.138Z,99956.40
2023-04-26T05:18:28.084Z,99955.61
2023-04-26T05:20:58.816Z,99957.36
2023-04-26T05:23:28.626Z,99955.42
2023-04-26T05:25:58.111Z,99962.21
2023-04-26T05:28:47.075Z,99960.86
2023-04-26T05:31:25.677Z,99961.80
2023-04-26T05:34:06.680Z,99963.01
2023-04-26T05:36:41.002Z,99969.05
2023-04-26T05:39:10.993Z,99970.98
2023-04-26T05:41:39.797Z,99975.53
2023-04-26T05:44:08.671Z,99977.38
2023-04-26T05:46:37.580Z,99977.27
2023-04-26T05:49:07.193Z,99976.44
2023-04-26T05:51:35.978Z,99977.59
2023-04-26T05:54:05.052Z,99978.25
2023-04-26T05:56:34.356Z,99982.84
2023-04-26T05:59:03.589Z,99985.59
2023-04-26T06:01:32.857Z,99982.37
2023-04-26T06:04:02.868Z,99987.80
2023-04-26T06:06:37.488Z,99988.84
2023-04-26T06:09:06.164Z,99990.23
2023-04-26T06:11:34.990Z,99992.02
2023-04-26T06:14:05.191Z,99994.59
2023-04-26T06:16:34.125Z,99992.51
2023-04-26T06:19:03.276Z,99996.23
2023-04-26T06:21:32.481Z,99994.98
2023-04-26T06:24:01.762Z,100001.04
2023-04-26T06:26:32.196Z,100005.18
2023-04-26T06:29:02.031Z,100000.67
2023-04-26T06:31:32.009Z,100006.23
2023-04-26T06:34:01.035Z,100005.00
2023-04-26T06:36:30.630Z,99998.78
2023-04-26T06:39:00.052Z,100003.90
2023-04-26T06:41:28.706Z,100005.02
2023-04-26T06:43:57.503Z,100004.88
2023-04-26T06:46:33.343Z,100007.14
2023-04-26T06:49:02.261Z,100008.77
2023-04-26T06:51:32.273Z,100002.39
2023-04-26T06:54:01.707Z,100006.23
2023-04-26T06:56:30.246Z,100000.84
2023-04-26T06:59:07.018Z,100005.52
2023-04-26T07:01:36.985Z,100007.16
2023-04-26T07:04:13.421Z,100002.27
2023-04-26T07:06:42.830Z,100010.98
2023-04-26T07:09:12.846Z,100009.16
2023-04-26T07:11:42.028Z,100012.90
2023-04-26T07:14:12.513Z,100019.95
2023-04-26T07:16:42.042Z,100013.59
2023-04-26T07:19:11.873Z,100013.50
2023-04-26T07:21:40.865Z,100014.39
2023-04-26T07:24:10.680Z,100015.77
2023-04-26T07:26:40.153Z,100012.70
2023-04-26T07:29:09.373Z,100012.02
2023-04-26T07:31:38.170Z,100016.34
2023-04-26T07:34:07.081Z,100016.17
2023-04-26T07:36:36.269Z,100011.90
2023-04-26T07:39:07.099Z,100018.35
2023-04-26T07:41:36.094Z,100021.79
2023-04-26T07:44:05.250Z,100015.13
2023-04-26T07:46:37.452Z,100023.90
2023-04-26T07:49:06.439Z,100026.10
2023-04-26T07:51:37.305Z,100024.88
2023-04-26T07:54:06.386Z,100023.76
2023-04-26T07:56:35.764Z,100031.32
2023-04-26T07:59:05.797Z,100027.65
2023-04-26T08:01:34.784Z,100030.56
2023-04-26T08:04:05.511Z,100029.92
2023-04-26T08:06:34.846Z,100027.11
2023-04-26T08:09:05.453Z,100029.23
2023-04-26T08:11:35.228Z,100029.58
2023-04-26T08:14:03.754Z,100032.23
2023-04-26T08:16:32.667Z,100031.34
2023-04-26T08:19:03.277Z,100026.45
2023-04-26T08:21:32.673Z,100025.15
2023-04-26T08:24:02.752Z,100029.36
2023-04-26T08:26:31.886Z,100029.00
2023-04-26T08:29:00.568Z,100029.36
2023-04-26T08:31:29.644Z,100033.20
2023-04-26T08:33:58.249Z,100037.80
2023-04-26T08:36:27.276Z,100043.73
2023-04-26T08:38:58.374Z,100040.27
2023-04-26T08:41:28.406Z,100039.84
2023-04-26T08:43:58.788Z,100040.95
2023-04-26T08:46:28.493Z,100034.44
2023-04-26T08:49:10.129Z,100040.31
2023-04-26T08:51:40.612Z,100041.74
2023-04-26T08:54:10.866Z,100036.02
2023-04-26T08:56:40.071Z,100034.36
2023-04-26T08:59:09.595Z,100039.46
2023-04-26T09:01:42.127Z,100038.35
2023-04-26T09:04:11.153Z,100039.09
2023-04-26T09:06:40.232Z,100041.73
2023-04-26T09:09:09.948Z,100042.02
2023-04-26T09:12:00.662Z,100053.56
2023-04-26T09:14:30.592Z,100045.91
2023-04-26T09:16:59.522Z,100046.23
2023-04-26T09:19:43.469Z,100050.39
2023-04-26T09:22:12.453Z,100048.36
2023-04-26T09:24:52.850Z,100045.70
2023-04-26T09:27:22.658Z,100042.33
2023-04-26T09:30:08.637Z,100050.97
2023-04-26T09:32:49.109Z,100049.27
2023-04-26T09:35:35.303Z,100047.02
2023-04-26T09:38:12.791Z,100048.97
2023-04-26T09:40:48.016Z,100045.79
2023-04-26T09:43:21.800Z,100046.27
2023-04-26T09:45:53.033Z,100037.79
2023-04-26T09:48:42.556Z,100051.23
2023-04-26T09:51:12.702Z,100047.84
2023-04-26T09:53:48.603Z,100048.43
2023-04-26T09:56:19.258Z,100043.35
2023-04-26T09:58:47.767Z,100041.98
2023-04-26T10:01:20.779Z,100048.23
2023-04-26T10:03:49.995Z,100040.40
2023-04-26T10:06:20.054Z,100047.33
2023-04-26T10:08:48.746Z,100040.63
2023-04-26T10:11:18.141Z,100042.95
2023-04-26T10:13:46.931Z,100045.92
2023-04-26T10:16:17.579Z,100042.10
2023-04-26T10:18:46.789Z,100042.28
2023-04-26T10:21:21.128Z,100039.51
2023-04-26T10:23:50.212Z,100031.20
2023-04-26T10:26:58.165Z,100035.70
2023-04-26T10:29:47.865Z,100038.98
2023-04-26T10:32:19.176Z,100041.31
2023-04-26T10:35:13.936Z,100030.98
2023-04-26T10:38:04.616Z,100037.58
2023-04-26T10:40:40.789Z,100038.13
2023-04-26T10:43:13.035Z,100040.58
2023-04-26T10:45:43.112Z,100035.82
2023-04-26T10:48:28.328Z,100040.49
2023-04-26T10:51:02.790Z,100048.31
2023-04-26T10:53:33.090Z,100065.41
2023-04-26T10:56:02.000Z,100050.42
2023-04-26T10:58:35.286Z,100046.95
2023-04-26T11:01:24.924Z,100042.28
2023-04-26T11:03:59.939Z,100035.61
2023-04-26T11:06:48.417Z,100038.25
2023-04-26T11:09:38.801Z,100034.29
2023-04-26T11:12:13.024Z,100048.84
2023-04-26T11:14:42.807Z,100045.48
2023-04-26T11:17:11.942Z,100052.72
2023-04-26T11:19:42.261Z,100045.73
2023-04-26T11:22:11.241Z,100064.27
2023-04-26T11:24:40.245Z,100054.89
2023-04-26T11:27:10.835Z,100054.41
2023-04-26T11:29:40.496Z,100059.34
2023-04-26T11:32:09.787Z,100050.67
2023-04-26T11:34:39.833Z,100049.80
2023-04-26T11:37:09.191Z,100048.06
2023-04-26T11:39:38.288Z,100057.46
2023-04-26T11:42:12.049Z,100052.79
2023-04-26T11:44:42.250Z,100056.94
2023-04-26T11:47:12.256Z,100056.71
2023-04-26T11:49:41.889Z,100059.05
2023-04-26T11:52:11.349Z,100061.84
2023-04-26T11:54:40.445Z,100061.67
2023-04-26T11:57:17.938Z,100052.96
2023-04-26T11:59:48.103Z,100057.73
2023-04-26T12:02:17.526Z,100052.23
2023-04-26T12:04:47.322Z,100056.76
2023-04-26T12:07:19.980Z,100069.14
2023-04-26T12:09:49.255Z,100066.58
2023-04-26T12:12:18.730Z,100064.04
2023-04-26T12:14:48.380Z,100058.10
2023-04-26T12:17:18.428Z,100057.39
2023-04-26T12:19:51.059Z,100059.17
2023-04-26T12:22:24.894Z,100057.13
2023-04-26T12:25:06.311Z,100054.38
2023-04-26T12:27:36.282Z,100054.08
2023-04-26T12:30:06.708Z,100061.05
2023-04-26T12:32:36.719Z,100064.98
2023-04-26T12:35:08.045Z,100069.60
2023-04-26T12:37:38.176Z,100065.59
2023-04-26T12:40:09.735Z,100067.41
2023-04-26T12:42:39.268Z,100068.02
2023-04-26T12:45:09.012Z,100069.52
2023-04-26T12:47:38.842Z,100068.34
2023-04-26T12:50:09.390Z,100069.98
2023-04-26T12:52:39.911Z,100063.79
2023-04-26T12:55:10.126Z,100064.81
2023-04-26T12:57:40.346Z,100063.81
2023-04-26T13:00:13.742Z,100069.81
2023-04-26T13:02:43.501Z,100067.86
2023-04-26T13:05:13.393Z,100075.35
2023-04-26T13:07:45.359Z,100068.27
2023-04-26T13:10:14.657Z,100068.92
2023-04-26T13:12:44.502Z,100068.71
2023-04-26T13:17:44.959Z,100064.98
2023-04-26T13:20:14.394Z,100064.02
2023-04-26T13:22:43.969Z,100069.64
2023-04-26T13:25:16.274Z,100074.45
2023-04-26T13:27:46.319Z,100083.28
2023-04-26T13:30:15.565Z,100086.30
2023-04-26T13:32:45.381Z,100093.71
2023-04-26T13:35:14.642Z,100096.25
2023-04-26T13:37:43.695Z,100099.14
2023-04-26T13:40:13.698Z,100098.55
2023-04-26T13:42:43.424Z,100098.99
2023-04-26T13:45:14.027Z,100091.31
2023-04-26T13:47:43.219Z,100093.21
2023-04-26T13:50:12.660Z,100096.94
2023-04-26T13:52:42.668Z,100097.14
2023-04-26T13:55:11.788Z,100098.66
2023-04-26T13:57:40.560Z,100100.29
2023-04-26T14:00:10.569Z,100097.06
2023-04-26T14:02:43.793Z,100099.92
2023-04-26T14:05:13.943Z,100101.34
2023-04-26T14:07:43.395Z,100098.59
2023-04-26T14:10:12.793Z,100100.98
2023-04-26T14:12:42.792Z,100098.95
2023-04-26T14:15:13.019Z,100103.34
2023-04-26T14:17:42.659Z,100103.82
2023-04-26T14:20:11.930Z,100099.11
2023-04-26T14:22:42.426Z,100104.88
2023-04-26T14:25:11.541Z,100108.00
2023-04-26T14:27:40.803Z,100102.76
2023-04-26T14:30:10.509Z,100106.42
2023-04-26T14:32:39.933Z,100106.69
2023-04-26T14:35:10.057Z,100107.23
2023-04-26T14:37:39.292Z,100106.54
2023-04-26T14:40:09.324Z,100107.63
2023-04-26T14:42:38.308Z,100103.77
2023-04-26T14:45:07.910Z,100108.50
2023-04-26T14:47:36.918Z,100115.37
2023-04-26T14:50:10.807Z,100115.02
2023-04-26T14:52:40.999Z,100121.11
2023-04-26T14:55:10.777Z,100122.36
2023-04-26T14:57:42.374Z,100118.98
2023-04-26T15:00:15.892Z,100124.89
2023-04-26T15:02:45.622Z,100124.17
2023-04-26T15:05:15.826Z,100119.57
2023-04-26T15:07:45.321Z,100124.40
2023-04-26T15:10:14.526Z,100122.43
2023-04-26T15:12:43.721Z,100133.63
2023-04-26T15:15:12.701Z,100135.27
2023-04-26T15:17:41.821Z,100137.16
2023-04-26T15:20:11.290Z,100141.70
2023-04-26T15:22:40.300Z,100141.52
2023-04-26T15:25:10.804Z,100133.55
2023-04-26T15:27:40.185Z,100131.85
2023-04-26T15:30:09.862Z,100131.64
2023-04-26T15:32:39.215Z,100129.65
2023-04-26T15:35:08.849Z,100135.15
2023-04-26T15:37:38.576Z,100133.36
2023-04-26T15:40:11.074Z,100126.05
2023-04-26T15:42:40.540Z,100130.23
2023-04-26T15:45:11.329Z,100127.34
2023-04-26T15:47:41.524Z,100131.82
2023-04-26T15:50:11.746Z,100130.66
2023-04-26T15:52:41.530Z,100132.39
2023-04-26T15:55:11.408Z,100141.77
2023-04-26T15:57:42.245Z,100133.95
2023-04-26T16:00:14.547Z,100138.39
2023-04-26T16:02:45.200Z,100136.55
2023-04-26T16:05:14.866Z,100138.96
2023-04-26T16:07:43.891Z,100140.30
2023-04-26T16:10:13.286Z,100141.02
2023-04-26T16:12:44.037Z,100143.52
2023-04-26T16:15:13.319Z,100146.32
2023-04-26T16:17:42.886Z,100147.34
2023-04-26T16:20:12.861Z,100156.55
2023-04-26T16:22:44.680Z,100161.05
2023-04-26T16:25:16.628Z,100165.48
2023-04-26T16:27:45.670Z,100161.79
2023-04-26T16:30:14.976Z,100162.20
2023-04-26T16:32:44.011Z,100162.79
2023-04-26T16:35:13.055Z,100162.95
2023-04-26T16:37:45.742Z,100162.00
2023-04-26T16:40:15.680Z,100160.77
2023-04-26T16:42:46.653Z,100160.45
2023-04-26T16:45:16.871Z,100166.61
2023-04-26T16:47:46.431Z,100163.51
2023-04-26T16:50:15.615Z,100165.96
2023-04-26T16:52:45.237Z,100167.60
2023-04-26T16:55:14.868Z,100169.48
2023-04-26T16:57:43.609Z,100167.20
2023-04-26T17:00:13.947Z,100171.45
2023-04-26T17:02:43.662Z,100166.96
2023-04-26T17:05:12.989Z,100169.70
2023-04-26T17:07:42.749Z,100175.02
2023-04-26T17:10:12.675Z,100176.15
2023-04-26T17:12:42.794Z,100178.29
2023-04-26T17:15:12.432Z,100181.54
2023-04-26T17:17:44.434Z,100186.39
2023-04-26T17:20:17.119Z,100187.98
2023-04-26T17:22:46.744Z,100187.59
2023-04-26T17:25:17.882Z,100188.97
2023-04-26T17:27:48.034Z,100189.43
2023-04-26T17:30:29.508Z,100194.11
2023-04-26T17:33:13.245Z,100196.77
2023-04-26T17:35:45.422Z,100197.67
2023-04-26T17:38:18.403Z,100203.42
2023-04-26T17:40:53.661Z,100204.80
2023-04-26T17:43:25.174Z,100210.75
2023-04-26T17:45:54.976Z,100213.43
2023-04-26T17:48:31.619Z,100215.48
2023-04-26T17:51:02.262Z,100217.49
2023-04-26T17:53:35.519Z,100216.16
2023-04-26T17:56:08.695Z,100217.43
2023-04-26T17:58:40.731Z,100217.80
2023-04-26T18:01:10.573Z,100223.17
2023-04-26T18:03:41.822Z,100224.34
2023-04-26T18:06:10.401Z,100224.39
2023-04-26T18:08:43.188Z,100224.02
2023-04-26T18:11:13.592Z,100228.23
2023-04-26T18:13:43.497Z,100230.59
2023-04-26T18:16:19.507Z,100229.00
2023-04-26T18:18:49.775Z,100229.91
2023-04-26T18:21:19.688Z,100232.31
2023-04-26T18:23:49.733Z,100236.61
2023-04-26T18:26:19.777Z,100237.79
2023-04-26T18:28:51.802Z,100241.77
2023-04-26T18:31:27.873Z,100243.21
2023-04-26T18:33:58.043Z,100246.19
2023-04-26T18:36:27.786Z,100246.09
2023-04-26T18:38:59.816Z,100243.34
2023-04-26T18:41:30.479Z,100243.77
2023-04-26T18:44:01.482Z,100242.45
2023-04-26T18:46:32.228Z,100244.06
2023-04-26T18:49:04.305Z,100246.85
2023-04-26T18:51:35.038Z,100247.55
2023-04-26T18:54:10.391Z,100253.05
2023-04-26T18:56:47.169Z,100255.05
2023-04-26T18:59:18.518Z,100257.77
2023-04-26T19:01:49.671Z,100260.75
2023-04-26T19:04:21.906Z,100262.70
2023-04-26T19:06:56.033Z,100266.55
2023-04-26T19:09:27.295Z,100265.90
2023-04-26T19:11:57.932Z,100269.20
2023-04-26T19:14:29.643Z,100269.27
2023-04-26T19:17:01.784Z,100270.23
2023-04-26T19:19:32.014Z,100271.88
2023-04-26T19:22:03.789Z,100267.39
2023-04-26T19:24:44.316Z,100272.25
2023-04-26T19:27:17.100Z,100276.67
2023-04-26T19:29:47.607Z,100279.34
2023-04-26T19:32:20.963Z,100279.39
2023-04-26T19:34:53.935Z,100282.13
2023-04-26T19:37:26.654Z,100278.68
2023-04-26T19:39:59.622Z,100277.73
2023-04-26T19:42:32.002Z,100281.23
2023-04-26T19:45:04.185Z,100281.70
2023-04-26T19:47:40.074Z,100287.13
2023-04-26T19:50:12.541Z,100284.27
2023-04-26T19:52:44.066Z,100286.78
2023-04-26T19:55:16.789Z,100290.66
2023-04-26T19:57:50.848Z,100291.98
2023-04-26T20:00:22.535Z,100292.79
2023-04-26T20:02:54.010Z,100292.11
2023-04-26T20:05:25.334Z,100292.12
2023-04-26T20:07:55.237Z,100289.64
2023-04-26T20:10:26.292Z,100288.40
2023-04-26T20:12:57.078Z,100292.52
2023-04-26T20:15:33.000Z,100294.58
2023-04-26T20:18:05.233Z,100299.30
2023-04-26T20:20:35.655Z,100297.51
2023-04-26T20:23:05.874Z,100295.00
2023-04-26T20:25:36.799Z,100296.60
2023-04-26T20:28:07.233Z,100293.33
2023-04-26T20:30:38.132Z,100296.08
2023-04-26T20:33:07.965Z,100299.58
2023-04-26T20:35:37.978Z,100300.32
2023-04-26T20:38:08.432Z,100300.46
2023-04-26T20:40:39.590Z,100302.04
2023-04-26T20:43:09.505Z,100306.13
2023-04-26T20:45:40.342Z,100300.77
2023-04-26T20:48:09.896Z,100302.48
2023-04-26T20:50:38.824Z,100303.35
2023-04-26T20:53:08.240Z,100305.84
2023-04-26T20:55:37.345Z,100306.78
2023-04-26T20:58:06.435Z,100306.23
2023-04-26T21:00:35.752Z,100305.52
2023-04-26T21:03:05.016Z,100309.42
2023-04-26T21:05:34.319Z,100309.69
2023-04-26T21:08:03.738Z,100309.60
2023-04-26T21:10:32.816Z,100307.58
2023-04-26T21:13:02.226Z,100312.73
2023-04-26T21:15:32.010Z,100312.20
2023-04-26T21:18:01.362Z,100314.15
2023-04-26T21:20:30.934Z,100312.48
2023-04-26T21:23:00.982Z,100313.89
2023-04-26T21:25:29.658Z,100314.53
2023-04-26T21:27:59.265Z,100316.52
2023-04-26T21:30:28.339Z,100319.27
2023-04-26T21:32:57.493Z,100321.03
2023-04-26T21:35:26.322Z,100325.73
2023-04-26T21:37:55.346Z,100325.18
2023-04-26T21:40:24.217Z,100326.42
2023-04-26T21:43:04.013Z,100328.34
2023-04-26T21:45:33.672Z,100329.66
2023-04-26T21:48:02.527Z,100330.10
2023-04-26T21:50:31.800Z,100331.71
2023-04-26T21:53:00.343Z,100332.54
2023-04-26T21:55:29.150Z,100337.30
2023-04-26T21:57:57.911Z,100339.76
2023-04-26T22:00:27.738Z,100339.61
2023-04-26T22:02:56.623Z,100339.75
2023-04-26T22:05:26.333Z,100341.42
2023-04-26T22:07:55.016Z,100349.26
2023-04-26T22:10:23.923Z,100350.04
2023-04-26T22:12:53.402Z,100352.42
2023-04-26T22:15:22.307Z,100353.00
2023-04-26T22:17:51.397Z,100356.91
2023-04-26T22:20:20.177Z,100360.94
2023-04-26T22:22:49.070Z,100358.73
2023-04-26T22:25:17.850Z,100359.70
2023-04-26T22:27:46.760Z,100358.86
2023-04-26T22:30:25.450Z,100359.10
2023-04-26T22:32:57.662Z,100363.33
2023-04-26T22:35:27.909Z,100359.04
2023-04-26T22:37:56.956Z,100362.77
2023-04-26T22:40:26.054Z,100362.90
2023-04-26T22:42:55.155Z,100361.44
2023-04-26T22:45:23.939Z,100360.32
2023-04-26T22:47:52.713Z,100363.58
2023-04-26T22:50:22.034Z,100362.96
2023-04-26T22:52:51.313Z,100366.58
2023-04-26T22:55:20.136Z,100365.57
2023-04-26T22:57:48.887Z,100367.84
2023-04-26T23:00:18.011Z,100364.48
2023-04-26T23:02:46.696Z,100365.44
2023-04-26T23:05:15.584Z,100364.36
2023-04-26T23:07:44.459Z,100365.58
2023-04-26T23:10:13.349Z,100365.56
2023-04-26T23:12:42.132Z,100368.38
2023-04-26T23:15:12.161Z,100370.91
2023-04-26T23:17:42.087Z,100372.44
2023-04-26T23:20:14.075Z,100373.86
2023-04-26T23:22:43.994Z,100376.80
2023-04-26T23:25:12.528Z,100377.96
2023-04-26T23:27:41.637Z,100375.45
2023-04-26T23:30:12.227Z,100375.90
2023-04-26T23:32:40.972Z,100377.95
2023-04-26T23:35:10.444Z,100380.90
2023-04-26T23:37:39.247Z,100379.98
2023-04-26T23:40:10.499Z,100385.00
2023-04-26T23:42:39.278Z,100381.33
2023-04-26T23:45:09.354Z,100385.54
2023-04-26T23:47:37.937Z,100389.44
2023-04-26T23:50:07.800Z,100383.44
2023-04-26T23:52:37.389Z,100382.73
2023-04-26T23:55:08.430Z,100386.16
2023-04-26T23:57:37.131Z,100387.94
